Time;durP1;ratioP1;P1;durP2;ratioP2;P2;SDS_P1;SDS_P2;PMS_P1;PMS_P2;Temp;Humidity;BMP_temperature;BMP_pressure;BME280_temperature;BME280_humidity;BME280_pressure;Samples;Min_cycle;Max_cycle;Signal;HPM_P1;HPM_P2
2023/04/14 00:00:50;;;;;;;3.78;2.00;;;;;;;;;;6216919;28;20052;-78
2023/04/14 00:03:52;;;;;;;2.72;1.92;;;;;;;;;;6215536;28;20125;-78
2023/04/14 00:06:57;;;;;;;7.50;2.17;;;;;;;;;;6213062;28;20411;-79
2023/04/14 00:09:58;;;;;;;4.95;1.92;;;;;;;;;;6210753;28;20181;-78
2023/04/14 00:13:00;;;;;;;3.78;2.28;;;;;;;;;;6197555;28;20041;-77
2023/04/14 00:16:05;;;;;;;2.58;1.40;;;;;;;;;;6215385;28;20046;-79
2023/04/14 00:19:06;;;;;;;3.88;1.50;;;;;;;;;;6213278;28;20133;-77
2023/04/14 00:22:08;;;;;;;1.92;1.40;;;;;;;;;;6215215;28;20041;-78
2023/04/14 00:25:09;;;;;;;2.35;1.35;;;;;;;;;;6213547;28;20133;-77
2023/04/14 00:28:11;;;;;;;2.28;1.48;;;;;;;;;;6216827;28;20116;-77
2023/04/14 00:31:13;;;;;;;2.67;1.70;;;;;;;;;;6210213;28;20526;-76
2023/04/14 00:34:15;;;;;;;3.58;1.60;;;;;;;;;;6218690;28;20046;-79
2023/04/14 00:37:16;;;;;;;3.00;1.50;;;;;;;;;;6218960;28;20125;-77
2023/04/14 00:40:18;;;;;;;3.63;1.73;;;;;;;;;;6218233;28;20131;-78
2023/04/14 00:43:20;;;;;;;3.85;1.58;;;;;;;;;;6216641;28;20057;-78
2023/04/14 00:46:21;;;;;;;3.05;1.98;;;;;;;;;;6214051;28;20559;-77
2023/04/14 00:49:24;;;;;;;3.97;1.80;;;;;;;;;;6215470;28;20061;-78
2023/04/14 00:52:26;;;;;;;5.57;2.90;;;;;;;;;;6214988;28;20045;-77
2023/04/14 00:55:29;;;;;;;3.85;1.95;;;;;;;;;;6200633;28;20045;-77
2023/04/14 00:58:31;;;;;;;3.73;1.97;;;;;;;;;;6215827;28;20096;-78
2023/04/14 01:01:36;;;;;;;3.30;1.77;;;;;;;;;;6219072;28;20037;-77
2023/04/14 01:04:37;;;;;;;4.65;2.05;;;;;;;;;;6216886;28;20057;-76
2023/04/14 01:07:54;;;;;;;3.63;2.10;;;;;;;;;;6208255;28;20046;-78
2023/04/14 01:11:04;;;;;;;4.65;2.47;;;;;;;;;;6210852;28;20058;-81
2023/04/14 01:14:08;;;;;;;4.18;2.25;;;;;;;;;;6212509;28;20142;-76
2023/04/14 01:17:21;;;;;;;5.30;2.30;;;;;;;;;;6215682;28;20073;-76
2023/04/14 01:20:33;;;;;;;3.53;2.27;;;;;;;;;;6199802;28;20038;-81
2023/04/14 01:23:40;;;;;;;14.50;2.67;;;;;;;;;;6198885;28;20481;-76
2023/04/14 01:26:43;;;;;;;18.15;3.42;;;;;;;;;;6216129;28;20050;-80
2023/04/14 01:30:00;;;;;;;10.65;3.25;;;;;;;;;;6216916;28;20049;-77
2023/04/14 01:33:08;;;;;;;9.35;3.40;;;;;;;;;;6209628;28;20527;-78
2023/04/14 01:36:15;;;;;;;7.13;3.05;;;;;;;;;;6218705;28;20133;-76
2023/04/14 01:39:21;;;;;;;7.88;2.85;;;;;;;;;;6182501;28;20053;-75
2023/04/14 01:42:29;;;;;;;10.85;3.38;;;;;;;;;;6190930;28;20172;-79
2023/04/14 01:45:37;;;;;;;14.85;3.63;;;;;;;;;;6207365;28;20534;-77
2023/04/14 01:48:40;;;;;;;9.85;3.40;;;;;;;;;;6227065;28;20045;-77
2023/04/14 01:51:42;;;;;;;18.35;3.58;;;;;;;;;;6208325;28;20053;-78
2023/04/14 01:54:48;;;;;;;19.80;3.60;;;;;;;;;;6207782;28;20060;-78
2023/04/14 01:57:52;;;;;;;19.88;3.28;;;;;;;;;;6208458;28;20041;-79
2023/04/14 02:00:56;;;;;;;16.83;3.30;;;;;;;;;;6219280;28;20050;-76
2023/04/14 02:04:00;;;;;;;11.02;3.00;;;;;;;;;;6223801;28;20519;-79
2023/04/14 02:07:04;;;;;;;19.48;3.67;;;;;;;;;;6208030;28;20148;-79
2023/04/14 02:10:08;;;;;;;20.90;3.63;;;;;;;;;;6208019;28;20056;-76
2023/04/14 02:13:12;;;;;;;27.35;3.97;;;;;;;;;;6204705;28;20084;-79
2023/04/14 02:16:15;;;;;;;22.30;3.58;;;;;;;;;;6206650;28;20042;-79
2023/04/14 02:19:21;;;;;;;27.15;3.60;;;;;;;;;;6211015;28;20045;-78
2023/04/14 02:22:23;;;;;;;24.33;3.60;;;;;;;;;;6188448;28;20054;-79
2023/04/14 02:25:30;;;;;;;29.50;3.50;;;;;;;;;;6210881;28;20045;-79
2023/04/14 02:28:40;;;;;;;11.73;2.92;;;;;;;;;;6208521;28;20058;-76
2023/04/14 02:31:48;;;;;;;18.02;3.00;;;;;;;;;;6224327;28;20052;-77
2023/04/14 02:34:54;;;;;;;16.98;2.85;;;;;;;;;;6203899;28;20493;-77
2023/04/14 02:38:05;;;;;;;16.48;2.70;;;;;;;;;;6186456;28;20141;-81
2023/04/14 02:41:11;;;;;;;12.35;2.70;;;;;;;;;;6197425;28;20514;-79
2023/04/14 02:44:20;;;;;;;26.95;2.67;;;;;;;;;;6199560;28;20077;-79
2023/04/14 02:47:26;;;;;;;12.68;2.30;;;;;;;;;;6184300;28;20046;-80
2023/04/14 02:50:32;;;;;;;18.50;2.67;;;;;;;;;;6208471;28;20042;-79
2023/04/14 02:53:44;;;;;;;9.43;2.30;;;;;;;;;;6209348;28;20045;-81
2023/04/14 02:56:57;;;;;;;14.52;3.05;;;;;;;;;;6209782;28;20053;-77
2023/04/14 03:00:00;;;;;;;;;;;;;;;;;;6195945;28;20057;-79
2023/04/14 03:03:04;;;;;;;9.00;2.47;;;;;;;;;;6214734;28;19921;-78
2023/04/14 03:06:08;;;;;;;20.20;3.03;;;;;;;;;;6208450;28;20164;-81
2023/04/14 03:09:10;;;;;;;8.80;2.28;;;;;;;;;;6189013;28;20053;-79
2023/04/14 03:12:13;;;;;;;11.68;2.78;;;;;;;;;;6211678;28;20455;-80
2023/04/14 03:15:17;;;;;;;13.73;2.67;;;;;;;;;;6211133;28;20116;-80
2023/04/14 03:18:20;;;;;;;18.98;2.65;;;;;;;;;;6202350;28;20096;-79
2023/04/14 03:21:25;;;;;;;13.80;2.10;;;;;;;;;;6206253;28;20184;-77
2023/04/14 03:24:31;;;;;;;8.85;2.50;;;;;;;;;;6211935;28;20038;-80
2023/04/14 03:27:34;;;;;;;4.93;2.20;;;;;;;;;;6197071;28;20041;-80
2023/04/14 03:30:40;;;;;;;4.90;2.33;;;;;;;;;;6195500;28;20125;-79
2023/04/14 03:33:45;;;;;;;4.32;2.22;;;;;;;;;;6209936;28;20050;-79
2023/04/14 03:36:53;;;;;;;5.95;1.90;;;;;;;;;;6193566;28;20508;-80
2023/04/14 03:39:59;;;;;;;5.63;2.67;;;;;;;;;;6210100;28;20578;-81
2023/04/14 03:43:08;;;;;;;8.38;3.90;;;;;;;;;;6202946;28;20061;-77
2023/04/14 03:46:12;;;;;;;8.77;3.63;;;;;;;;;;6206190;28;20499;-79
2023/04/14 03:49:17;;;;;;;18.92;4.22;;;;;;;;;;6195287;28;20129;-77
2023/04/14 03:52:22;;;;;;;11.10;3.58;;;;;;;;;;6193976;28;20069;-80
2023/04/14 03:55:30;;;;;;;14.82;3.70;;;;;;;;;;6210564;28;20041;-79
2023/04/14 03:58:33;;;;;;;7.35;3.22;;;;;;;;;;6203752;28;20534;-80
2023/04/14 04:01:38;;;;;;;12.98;3.40;;;;;;;;;;6208104;28;20419;-79
2023/04/14 04:04:40;;;;;;;7.55;3.33;;;;;;;;;;6195391;28;20117;-78
2023/04/14 04:07:46;;;;;;;9.00;3.72;;;;;;;;;;6218472;28;20042;-80
2023/04/14 04:10:48;;;;;;;9.65;3.95;;;;;;;;;;6212021;28;20507;-81
2023/04/14 04:13:52;;;;;;;8.50;3.60;;;;;;;;;;6209354;28;20067;-79
2023/04/14 04:16:56;;;;;;;14.60;3.60;;;;;;;;;;6204827;28;20057;-79
2023/04/14 04:20:00;;;;;;;6.75;3.53;;;;;;;;;;6211958;28;20132;-81
2023/04/14 04:23:06;;;;;;;30.63;4.63;;;;;;;;;;6206655;28;20068;-78
2023/04/14 04:26:09;;;;;;;39.80;4.60;;;;;;;;;;6209730;28;20046;-78
2023/04/14 04:29:14;;;;;;;22.80;3.97;;;;;;;;;;6192272;28;20057;-80
2023/04/14 04:32:16;;;;;;;66.95;4.78;;;;;;;;;;6191004;28;20052;-80
2023/04/14 04:35:20;;;;;;;6.93;2.40;;;;;;;;;;6187918;28;20057;-81
2023/04/14 04:38:23;;;;;;;20.75;4.57;;;;;;;;;;6192812;28;20042;-76
2023/04/14 04:41:29;;;;;;;14.07;4.38;;;;;;;;;;6208797;28;20042;-78
2023/04/14 04:44:35;;;;;;;14.15;3.28;;;;;;;;;;6206640;28;20042;-76
2023/04/14 04:47:36;;;;;;;8.55;2.90;;;;;;;;;;6223492;28;20180;-76
2023/04/14 04:50:41;;;;;;;12.02;2.95;;;;;;;;;;6211869;28;20068;-78
2023/04/14 04:53:42;;;;;;;31.95;4.43;;;;;;;;;;6207682;28;20115;-77
2023/04/14 04:56:45;;;;;;;14.75;3.22;;;;;;;;;;6212178;28;20133;-79
2023/04/14 04:59:46;;;;;;;57.70;5.57;;;;;;;;;;6186930;28;20684;-78
2023/04/14 05:02:48;;;;;;;75.15;6.22;;;;;;;;;;6208376;28;20125;-78
2023/04/14 05:05:50;;;;;;;12.38;4.00;;;;;;;;;;6207423;28;20058;-77
2023/04/14 05:08:55;;;;;;;11.98;3.50;;;;;;;;;;6194589;28;20046;-76
2023/04/14 05:11:57;;;;;;;6.95;3.17;;;;;;;;;;6207203;28;20129;-78
2023/04/14 05:14:58;;;;;;;5.07;2.50;;;;;;;;;;6207064;28;20456;-78
2023/04/14 05:18:00;;;;;;;6.05;2.90;;;;;;;;;;6208923;28;20049;-77
2023/04/14 05:21:03;;;;;;;6.03;2.90;;;;;;;;;;6207276;28;20671;-76
2023/04/14 05:24:07;;;;;;;8.82;2.85;;;;;;;;;;6205978;28;20068;-79
2023/04/14 05:27:09;;;;;;;6.50;3.00;;;;;;;;;;6209152;28;20123;-78
2023/04/14 05:30:15;;;;;;;6.15;3.05;;;;;;;;;;6209171;28;20058;-77
2023/04/14 05:33:17;;;;;;;5.47;2.42;;;;;;;;;;6189433;28;20046;-75
2023/04/14 05:36:18;;;;;;;7.65;2.47;;;;;;;;;;6217683;28;20038;-76
2023/04/14 05:39:20;;;;;;;11.25;3.55;;;;;;;;;;6214272;28;20072;-79
2023/04/14 05:42:22;;;;;;;14.70;3.85;;;;;;;;;;6207714;28;20121;-78
2023/04/14 05:45:24;;;;;;;9.65;3.60;;;;;;;;;;6194670;28;20085;-78
2023/04/14 05:48:29;;;;;;;9.38;3.95;;;;;;;;;;6181963;28;20035;-78
2023/04/14 05:51:31;;;;;;;20.13;4.00;;;;;;;;;;6205118;28;20050;-78
2023/04/14 05:54:34;;;;;;;12.18;4.15;;;;;;;;;;6204576;28;20100;-76
2023/04/14 05:57:35;;;;;;;10.60;3.92;;;;;;;;;;6204188;28;20041;-79
2023/04/14 06:00:37;;;;;;;10.55;5.25;;;;;;;;;;6203830;28;20153;-79
2023/04/14 06:03:39;;;;;;;15.85;5.50;;;;;;;;;;6204983;28;20049;-77
2023/04/14 06:06:41;;;;;;;12.17;5.07;;;;;;;;;;6216093;28;20193;-79
2023/04/14 06:09:45;;;;;;;12.80;5.03;;;;;;;;;;6206620;28;20053;-79
2023/04/14 06:12:47;;;;;;;16.42;5.80;;;;;;;;;;6204790;28;20046;-77
2023/04/14 06:15:49;;;;;;;12.88;5.45;;;;;;;;;;6204180;28;20209;-78
2023/04/14 06:18:51;;;;;;;70.50;7.20;;;;;;;;;;6205869;28;20549;-78
2023/04/14 06:21:53;;;;;;;10.13;4.25;;;;;;;;;;6207334;28;20049;-79
2023/04/14 06:24:56;;;;;;;25.42;4.93;;;;;;;;;;6208897;28;20045;-78
2023/04/14 06:27:57;;;;;;;10.82;4.70;;;;;;;;;;6203657;28;20041;-79
2023/04/14 06:30:59;;;;;;;13.10;5.20;;;;;;;;;;6203497;28;20072;-77
2023/04/14 06:34:01;;;;;;;22.08;8.95;;;;;;;;;;6207868;28;20881;-78
2023/04/14 06:37:02;;;;;;;18.85;5.38;;;;;;;;;;6206685;28;20042;-76
2023/04/14 06:40:05;;;;;;;9.85;4.38;;;;;;;;;;6208368;28;20034;-79
2023/04/14 06:43:09;;;;;;;12.50;4.32;;;;;;;;;;6203042;28;20073;-77
2023/04/14 06:46:11;;;;;;;10.05;4.47;;;;;;;;;;6185427;28;20124;-77
2023/04/14 06:49:15;;;;;;;11.52;5.50;;;;;;;;;;6197146;28;20050;-78
2023/04/14 06:52:17;;;;;;;13.40;5.13;;;;;;;;;;6200964;28;20738;-77
2023/04/14 06:55:20;;;;;;;8.27;4.00;;;;;;;;;;6202935;28;20495;-77
2023/04/14 06:58:22;;;;;;;11.02;4.35;;;;;;;;;;6204280;28;20042;-77
2023/04/14 07:01:23;;;;;;;11.57;4.32;;;;;;;;;;6202688;28;20053;-78
2023/04/14 07:04:25;;;;;;;11.35;4.00;;;;;;;;;;6202237;28;20535;-78
2023/04/14 07:07:27;;;;;;;18.02;4.20;;;;;;;;;;6203234;28;20049;-75
2023/04/14 07:10:29;;;;;;;10.05;3.50;;;;;;;;;;6204054;28;20052;-78
2023/04/14 07:13:31;;;;;;;6.63;4.00;;;;;;;;;;6202563;28;20538;-78
2023/04/14 07:16:33;;;;;;;13.05;3.88;;;;;;;;;;6198243;28;20096;-79
2023/04/14 07:19:35;;;;;;;8.38;3.58;;;;;;;;;;6170331;28;20050;-78
2023/04/14 07:22:36;;;;;;;8.77;3.40;;;;;;;;;;6185119;28;20057;-77
2023/04/14 07:25:38;;;;;;;12.40;4.13;;;;;;;;;;6179161;28;20132;-78
2023/04/14 07:28:41;;;;;;;8.65;3.58;;;;;;;;;;6201211;28;20050;-77
2023/04/14 07:31:43;;;;;;;9.45;3.05;;;;;;;;;;6203629;28;20168;-78
2023/04/14 07:34:45;;;;;;;9.25;3.35;;;;;;;;;;6203770;28;20046;-79
2023/04/14 07:37:47;;;;;;;10.80;2.78;;;;;;;;;;6203254;28;20050;-77
2023/04/14 07:40:49;;;;;;;5.55;2.65;;;;;;;;;;6204975;28;20053;-77
2023/04/14 07:43:54;;;;;;;5.97;3.03;;;;;;;;;;6220167;28;20523;-77
2023/04/14 07:46:55;;;;;;;7.25;3.67;;;;;;;;;;6191610;28;20176;-78
2023/04/14 07:49:58;;;;;;;10.35;3.25;;;;;;;;;;6211873;28;20535;-78
2023/04/14 07:53:00;;;;;;;9.48;3.20;;;;;;;;;;6207202;28;20164;-78
2023/04/14 07:56:02;;;;;;;8.90;3.85;;;;;;;;;;6206922;28;20096;-79
2023/04/14 07:59:04;;;;;;;5.63;2.00;;;;;;;;;;6190938;28;20123;-79
2023/04/14 08:02:06;;;;;;;8.75;2.10;;;;;;;;;;6202690;28;20038;-77
2023/04/14 08:05:08;;;;;;;12.48;3.28;;;;;;;;;;6201554;28;20081;-76
2023/04/14 08:08:11;;;;;;;5.75;2.30;;;;;;;;;;6218599;28;20447;-79
2023/04/14 08:11:12;;;;;;;7.60;2.55;;;;;;;;;;6203892;28;20037;-80
2023/04/14 08:14:17;;;;;;;8.98;3.47;;;;;;;;;;6207545;28;20116;-77
2023/04/14 08:17:18;;;;;;;6.90;2.85;;;;;;;;;;6208773;28;20034;-79
2023/04/14 08:20:21;;;;;;;9.00;2.78;;;;;;;;;;6190991;28;20130;-80
2023/04/14 08:23:23;;;;;;;9.50;2.17;;;;;;;;;;6188290;28;20053;-79
2023/04/14 08:26:26;;;;;;;3.67;1.60;;;;;;;;;;6203954;28;20080;-79
2023/04/14 08:29:28;;;;;;;5.88;2.10;;;;;;;;;;6199017;28;20045;-80
2023/04/14 08:32:29;;;;;;;5.90;2.22;;;;;;;;;;6202437;28;20529;-79
2023/04/14 08:35:31;;;;;;;8.55;2.00;;;;;;;;;;6224367;28;20045;-78
2023/04/14 08:38:41;;;;;;;6.18;1.85;;;;;;;;;;6202375;28;20042;-77
2023/04/14 08:41:43;;;;;;;6.07;1.50;;;;;;;;;;6217893;28;20060;-81
2023/04/14 08:44:46;;;;;;;6.25;1.90;;;;;;;;;;6207938;28;20100;-78
2023/04/14 08:47:50;;;;;;;5.78;1.98;;;;;;;;;;6207496;28;20076;-78
2023/04/14 08:51:00;;;;;;;5.53;1.63;;;;;;;;;;6195768;28;20048;-78
2023/04/14 08:54:06;;;;;;;6.15;1.70;;;;;;;;;;6208882;28;20065;-80
2023/04/14 08:57:10;;;;;;;4.03;1.83;;;;;;;;;;6190100;28;20507;-81
2023/04/14 09:00:13;;;;;;;3.78;1.58;;;;;;;;;;6207840;28;20054;-80
2023/04/14 09:03:14;;;;;;;7.32;2.08;;;;;;;;;;6207820;28;20149;-79
2023/04/14 09:06:17;;;;;;;5.67;1.93;;;;;;;;;;6202651;28;20061;-79
2023/04/14 09:09:19;;;;;;;6.40;1.58;;;;;;;;;;6208834;28;20184;-79
2023/04/14 09:12:21;;;;;;;5.60;1.65;;;;;;;;;;6203023;28;20128;-79
2023/04/14 09:15:27;;;;;;;7.03;1.75;;;;;;;;;;6222245;28;20129;-78
2023/04/14 09:18:30;;;;;;;5.40;1.75;;;;;;;;;;6207007;28;20052;-79
2023/04/14 09:21:38;;;;;;;6.63;1.67;;;;;;;;;;6207134;28;20046;-80
2023/04/14 09:24:56;;;;;;;3.97;1.40;;;;;;;;;;6216085;28;20400;-80
2023/04/14 09:27:58;;;;;;;3.97;1.48;;;;;;;;;;6201978;28;20504;-79
2023/04/14 09:31:00;;;;;;;5.70;1.17;;;;;;;;;;6205779;28;20160;-81
2023/04/14 09:34:02;;;;;;;4.38;1.30;;;;;;;;;;6206779;28;20054;-79
2023/04/14 09:37:05;;;;;;;5.30;1.73;;;;;;;;;;6198948;28;20056;-79
2023/04/14 09:40:07;;;;;;;;;;;;;;;;;;6228041;28;20103;-79
2023/04/14 09:43:24;;;;;;;5.57;1.80;;;;;;;;;;6218098;28;20441;-79
2023/04/14 09:46:25;;;;;;;5.18;1.30;;;;;;;;;;6208333;28;20419;-78
2023/04/14 09:49:28;;;;;;;5.45;1.58;;;;;;;;;;6205860;28;20571;-79
2023/04/14 09:52:47;;;;;;;4.80;1.80;;;;;;;;;;6187862;28;20049;-80
2023/04/14 09:55:51;;;;;;;4.45;1.70;;;;;;;;;;6207775;28;20132;-80
2023/04/14 09:58:57;;;;;;;4.93;1.55;;;;;;;;;;6222055;28;20069;-81
2023/04/14 10:02:07;;;;;;;7.85;2.00;;;;;;;;;;6206488;28;20054;-80
2023/04/14 10:05:09;;;;;;;2.78;1.42;;;;;;;;;;6195786;28;20058;-81
2023/04/14 10:08:11;;;;;;;6.15;1.85;;;;;;;;;;6205667;28;20038;-81
2023/04/14 10:11:24;;;;;;;5.78;2.28;;;;;;;;;;6205746;28;20423;-81
2023/04/14 10:14:50;;;;;;;4.82;1.77;;;;;;;;;;6193305;28;20041;-80
2023/04/14 10:17:51;;;;;;;5.63;1.50;;;;;;;;;;6211061;28;20804;-81
2023/04/14 10:20:53;;;;;;;10.95;2.08;;;;;;;;;;6210730;28;20064;-79
2023/04/14 10:23:56;;;;;;;4.00;1.50;;;;;;;;;;6214826;28;20113;-79
2023/04/14 10:27:01;;;;;;;;;;;;;;;;;;6212857;28;20092;-81
2023/04/14 10:30:05;;;;;;;5.60;1.48;;;;;;;;;;6209474;28;19930;-80
2023/04/14 10:33:07;;;;;;;4.53;1.45;;;;;;;;;;6213306;28;20121;-80
2023/04/14 10:36:09;;;;;;;4.55;1.58;;;;;;;;;;6228517;28;20044;-81
2023/04/14 10:39:11;;;;;;;5.70;1.90;;;;;;;;;;6212455;28;20771;-77
2023/04/14 10:42:13;;;;;;;3.97;1.60;;;;;;;;;;6209654;28;20430;-78
2023/04/14 10:45:15;;;;;;;4.07;1.40;;;;;;;;;;6210572;28;20038;-80
2023/04/14 10:48:16;;;;;;;6.03;1.95;;;;;;;;;;6210964;28;20054;-77
2023/04/14 10:51:20;;;;;;;5.95;1.30;;;;;;;;;;6198021;28;20054;-80
2023/04/14 10:54:21;;;;;;;6.53;1.83;;;;;;;;;;6209435;28;20053;-79
2023/04/14 10:57:24;;;;;;;5.57;1.30;;;;;;;;;;6208144;28;20124;-77
2023/04/14 11:00:28;;;;;;;4.40;1.42;;;;;;;;;;6207069;28;20053;-80
2023/04/14 11:03:33;;;;;;;4.85;1.33;;;;;;;;;;6202134;28;20045;-77
2023/04/14 11:06:44;;;;;;;4.70;1.40;;;;;;;;;;6205695;28;20065;-77
2023/04/14 11:09:48;;;;;;;4.35;1.70;;;;;;;;;;6197702;28;20215;-78
2023/04/14 11:12:56;;;;;;;5.53;1.45;;;;;;;;;;6208920;28;20034;-78
2023/04/14 11:16:06;;;;;;;3.42;1.27;;;;;;;;;;6199452;28;20056;-78
2023/04/14 11:19:15;;;;;;;5.13;1.30;;;;;;;;;;6225518;28;20049;-80
2023/04/14 11:22:36;;;;;;;5.82;1.30;;;;;;;;;;6214668;28;20044;-79
2023/04/14 11:25:39;;;;;;;3.95;1.63;;;;;;;;;;6213757;28;20053;-79
2023/04/14 11:28:42;;;;;;;3.88;1.50;;;;;;;;;;6205764;28;20052;-79
2023/04/14 11:31:44;;;;;;;3.20;1.30;;;;;;;;;;6211970;28;20048;-77
2023/04/14 11:34:46;;;;;;;7.20;1.83;;;;;;;;;;6190582;28;20046;-78
2023/04/14 11:37:48;;;;;;;3.47;1.48;;;;;;;;;;6213192;28;20042;-78
2023/04/14 11:40:52;;;;;;;4.47;1.38;;;;;;;;;;6211738;28;20090;-78
2023/04/14 11:43:54;;;;;;;5.30;1.48;;;;;;;;;;6209304;28;20038;-78
2023/04/14 11:46:56;;;;;;;5.78;1.70;;;;;;;;;;6208882;28;20049;-76
2023/04/14 11:50:03;;;;;;;5.75;2.00;;;;;;;;;;6209119;28;20046;-77
2023/04/14 11:53:07;;;;;;;5.13;1.83;;;;;;;;;;6216005;28;20520;-77
2023/04/14 11:56:11;;;;;;;3.70;1.40;;;;;;;;;;6208498;28;20135;-78
2023/04/14 11:59:13;;;;;;;3.72;1.42;;;;;;;;;;6212074;28;20061;-77
2023/04/14 12:02:19;;;;;;;3.88;1.08;;;;;;;;;;6208961;28;20050;-78
2023/04/14 12:05:29;;;;;;;4.97;1.60;;;;;;;;;;6194224;28;20046;-77
2023/04/14 12:08:32;;;;;;;3.13;1.23;;;;;;;;;;6203321;28;20053;-77
2023/04/14 12:11:34;;;;;;;3.83;1.17;;;;;;;;;;6203405;28;20112;-77
2023/04/14 12:14:43;;;;;;;4.80;1.42;;;;;;;;;;6195692;28;20568;-77
2023/04/14 12:17:44;;;;;;;6.15;1.60;;;;;;;;;;6205797;28;20507;-78
2023/04/14 12:20:51;;;;;;;4.57;1.42;;;;;;;;;;6205593;28;20049;-81
2023/04/14 12:23:53;;;;;;;5.03;1.20;;;;;;;;;;6195801;28;20049;-80
2023/04/14 12:26:55;;;;;;;6.63;1.98;;;;;;;;;;6212786;28;20050;-82
2023/04/14 12:29:57;;;;;;;6.13;1.70;;;;;;;;;;6211903;28;20046;-82
2023/04/14 12:33:07;;;;;;;3.35;1.10;;;;;;;;;;6230062;28;20061;-79
2023/04/14 12:36:12;;;;;;;4.50;1.50;;;;;;;;;;6211243;28;20132;-81
2023/04/14 12:39:14;;;;;;;4.07;1.45;;;;;;;;;;6224871;28;20048;-83
2023/04/14 12:42:17;;;;;;;2.83;1.20;;;;;;;;;;6210730;28;20044;-81
2023/04/14 12:45:18;;;;;;;3.83;1.15;;;;;;;;;;6213518;28;20367;-82
2023/04/14 12:48:21;;;;;;;4.75;2.90;;;;;;;;;;6210202;28;20046;-82
2023/04/14 12:51:22;;;;;;;3.47;1.40;;;;;;;;;;6212736;28;20492;-80
2023/04/14 12:54:24;;;;;;;4.25;1.27;;;;;;;;;;6206723;28;20107;-78
2023/04/14 12:57:27;;;;;;;4.88;2.10;;;;;;;;;;6206796;28;20122;-79
2023/04/14 13:00:28;;;;;;;5.85;2.15;;;;;;;;;;6208025;28;20045;-80
2023/04/14 13:03:41;;;;;;;3.95;1.50;;;;;;;;;;6200289;28;20532;-79
2023/04/14 13:06:43;;;;;;;3.13;1.52;;;;;;;;;;6205291;28;20104;-82
2023/04/14 13:09:45;;;;;;;3.30;1.10;;;;;;;;;;6211996;28;20042;-78
2023/04/14 13:12:46;;;;;;;8.70;1.98;;;;;;;;;;6214284;28;20525;-78
2023/04/14 13:15:48;;;;;;;5.25;1.65;;;;;;;;;;6214996;28;20052;-79
2023/04/14 13:19:10;;;;;;;3.88;1.20;;;;;;;;;;6213613;28;20416;-81
2023/04/14 13:22:15;;;;;;;3.50;1.05;;;;;;;;;;6210002;28;20045;-80
2023/04/14 13:25:17;;;;;;;5.78;0.93;;;;;;;;;;6208330;28;20139;-80
2023/04/14 13:28:18;;;;;;;4.47;1.48;;;;;;;;;;6212332;28;20046;-80
2023/04/14 13:31:20;;;;;;;5.03;1.52;;;;;;;;;;6212618;28;20038;-80
2023/04/14 13:34:21;;;;;;;2.28;1.30;;;;;;;;;;6211017;28;21510;-78
2023/04/14 13:37:23;;;;;;;7.68;2.70;;;;;;;;;;6214945;28;20735;-77
2023/04/14 13:40:25;;;;;;;3.40;1.85;;;;;;;;;;6212796;28;20038;-77
2023/04/14 13:43:28;;;;;;;5.53;1.45;;;;;;;;;;6212355;28;20543;-79
2023/04/14 13:46:30;;;;;;;2.40;1.20;;;;;;;;;;6210516;28;20535;-77
2023/04/14 13:49:41;;;;;;;4.07;1.30;;;;;;;;;;6207292;28;20065;-78
2023/04/14 13:52:42;;;;;;;2.92;1.00;;;;;;;;;;6207003;28;20041;-78
2023/04/14 13:55:44;;;;;;;2.10;0.98;;;;;;;;;;6210681;28;20060;-80
2023/04/14 13:58:46;;;;;;;3.70;1.00;;;;;;;;;;6211519;28;20104;-78
2023/04/14 14:01:47;;;;;;;3.47;0.90;;;;;;;;;;6190022;28;20052;-79
2023/04/14 14:04:49;;;;;;;3.95;1.05;;;;;;;;;;6219169;28;20045;-79
2023/04/14 14:07:51;;;;;;;2.97;1.00;;;;;;;;;;6211099;28;20049;-78
2023/04/14 14:10:54;;;;;;;8.45;1.50;;;;;;;;;;6210799;28;20061;-78
2023/04/14 14:13:57;;;;;;;2.13;0.98;;;;;;;;;;6205145;28;20100;-79
2023/04/14 14:16:58;;;;;;;3.78;1.20;;;;;;;;;;6192089;28;20140;-82
2023/04/14 14:20:00;;;;;;;4.10;0.90;;;;;;;;;;6209957;28;20364;-79
2023/04/14 14:23:02;;;;;;;1.67;0.80;;;;;;;;;;6207024;28;20053;-77
2023/04/14 14:26:03;;;;;;;2.47;0.98;;;;;;;;;;6211082;28;20534;-78
2023/04/14 14:29:05;;;;;;;1.05;0.75;;;;;;;;;;6208825;28;20042;-76
2023/04/14 14:32:07;;;;;;;2.83;1.00;;;;;;;;;;6205461;28;20050;-80
2023/04/14 14:35:09;;;;;;;2.83;1.10;;;;;;;;;;6209879;28;21114;-78
2023/04/14 14:38:11;;;;;;;2.40;1.10;;;;;;;;;;6209394;28;20128;-78
2023/04/14 14:41:13;;;;;;;3.40;1.13;;;;;;;;;;6217570;28;20050;-78
2023/04/14 14:44:14;;;;;;;6.03;1.30;;;;;;;;;;6218460;28;20441;-81
2023/04/14 14:47:17;;;;;;;1.70;0.80;;;;;;;;;;6212229;28;20061;-81
2023/04/14 14:50:18;;;;;;;3.25;1.00;;;;;;;;;;6213183;28;20527;-80
2023/04/14 14:53:20;;;;;;;3.63;1.10;;;;;;;;;;6194704;28;20431;-81
2023/04/14 14:56:22;;;;;;;2.10;1.10;;;;;;;;;;6197683;28;20038;-80
2023/04/14 14:59:24;;;;;;;2.47;1.00;;;;;;;;;;6211795;28;20943;-78
2023/04/14 15:02:26;;;;;;;1.50;0.90;;;;;;;;;;6214938;28;20133;-80
2023/04/14 15:05:27;;;;;;;5.45;1.17;;;;;;;;;;6208281;28;20049;-81
2023/04/14 15:08:29;;;;;;;4.15;1.20;;;;;;;;;;6206546;28;20049;-78
2023/04/14 15:11:31;;;;;;;2.70;1.13;;;;;;;;;;6193327;28;20492;-78
2023/04/14 15:14:33;;;;;;;3.65;1.20;;;;;;;;;;6207439;28;20045;-79
2023/04/14 15:17:34;;;;;;;3.92;1.40;;;;;;;;;;6211887;28;20042;-78
2023/04/14 15:20:36;;;;;;;2.85;1.63;;;;;;;;;;6213262;28;20065;-79
2023/04/14 15:23:40;;;;;;;3.58;1.30;;;;;;;;;;6205002;28;20182;-79
2023/04/14 15:26:41;;;;;;;2.30;1.40;;;;;;;;;;6211880;28;20131;-77
2023/04/14 15:29:43;;;;;;;2.92;0.90;;;;;;;;;;6208870;28;20103;-77
2023/04/14 15:32:45;;;;;;;2.05;1.10;;;;;;;;;;6211114;28;20168;-80
2023/04/14 15:35:46;;;;;;;3.65;1.40;;;;;;;;;;6210376;28;20042;-78
2023/04/14 15:38:49;;;;;;;4.15;1.30;;;;;;;;;;6194387;28;20451;-80
2023/04/14 15:41:51;;;;;;;2.83;1.30;;;;;;;;;;6211122;28;20117;-80
2023/04/14 15:44:52;;;;;;;2.45;1.10;;;;;;;;;;6222647;28;20124;-79
2023/04/14 15:47:54;;;;;;;3.13;1.10;;;;;;;;;;6195539;28;20141;-79
2023/04/14 15:50:56;;;;;;;6.67;1.50;;;;;;;;;;6205762;28;20064;-78
2023/04/14 15:53:57;;;;;;;3.05;1.10;;;;;;;;;;6209801;28;20053;-78
2023/04/14 15:57:01;;;;;;;2.63;1.27;;;;;;;;;;6193991;28;20123;-78
2023/04/14 16:00:06;;;;;;;2.97;1.33;;;;;;;;;;6209016;28;20535;-77
2023/04/14 16:03:15;;;;;;;3.88;1.50;;;;;;;;;;6213327;28;20042;-80
2023/04/14 16:06:16;;;;;;;;;;;;;;;;;;6209447;28;20042;-77
2023/04/14 16:09:18;;;;;;;5.07;1.58;;;;;;;;;;6212594;28;19929;-80
2023/04/14 16:12:20;;;;;;;4.32;1.20;;;;;;;;;;6214373;28;20054;-80
2023/04/14 16:15:21;;;;;;;4.28;1.10;;;;;;;;;;6210902;28;20133;-78
2023/04/14 16:18:23;;;;;;;2.63;1.00;;;;;;;;;;6215516;28;20105;-79
2023/04/14 16:21:25;;;;;;;2.30;1.10;;;;;;;;;;6207490;28;20042;-77
2023/04/14 16:24:27;;;;;;;1.27;1.10;;;;;;;;;;6192215;28;20091;-80
2023/04/14 16:27:28;;;;;;;2.38;0.95;;;;;;;;;;6195032;28;20042;-77
2023/04/14 16:30:31;;;;;;;3.33;1.17;;;;;;;;;;6205999;28;22268;-78
2023/04/14 16:33:33;;;;;;;4.30;1.20;;;;;;;;;;6182667;28;21525;-77
2023/04/14 16:36:35;;;;;;;2.58;1.15;;;;;;;;;;6195473;28;20049;-77
2023/04/14 16:39:40;;;;;;;3.53;1.40;;;;;;;;;;6184427;28;20145;-79
2023/04/14 16:42:41;;;;;;;5.28;1.65;;;;;;;;;;6188484;28;20050;-80
2023/04/14 16:45:44;;;;;;;3.72;1.67;;;;;;;;;;6204552;28;20056;-78
2023/04/14 16:48:45;;;;;;;2.30;1.50;;;;;;;;;;6209351;28;22021;-79
2023/04/14 16:51:47;;;;;;;3.53;1.40;;;;;;;;;;6210312;28;20057;-77
2023/04/14 16:54:49;;;;;;;2.60;1.38;;;;;;;;;;6204646;28;20066;-78
2023/04/14 16:57:50;;;;;;;2.65;1.30;;;;;;;;;;6209379;28;20045;-79
2023/04/14 17:00:52;;;;;;;13.65;4.72;;;;;;;;;;6211960;28;20078;-80
2023/04/14 17:03:54;;;;;;;9.68;3.70;;;;;;;;;;6208711;28;20046;-79
2023/04/14 17:06:56;;;;;;;19.02;6.90;;;;;;;;;;6214139;28;20037;-78
2023/04/14 17:09:58;;;;;;;30.15;10.65;;;;;;;;;;6209842;28;20121;-77
2023/04/14 17:12:59;;;;;;;21.60;7.75;;;;;;;;;;6207802;28;20056;-79
2023/04/14 17:16:01;;;;;;;17.77;6.50;;;;;;;;;;6210514;28;20037;-78
2023/04/14 17:19:10;;;;;;;3.88;1.70;;;;;;;;;;6210035;28;20050;-79
2023/04/14 17:22:12;;;;;;;3.63;1.00;;;;;;;;;;6207651;28;20042;-78
2023/04/14 17:25:17;;;;;;;3.08;1.48;;;;;;;;;;6210979;28;20058;-79
2023/04/14 17:28:21;;;;;;;3.92;2.17;;;;;;;;;;6209040;28;20045;-76
2023/04/14 17:31:25;;;;;;;2.22;1.98;;;;;;;;;;6209192;28;20420;-79
2023/04/14 17:34:29;;;;;;;6.15;2.65;;;;;;;;;;6207657;28;20056;-77
2023/04/14 17:37:31;;;;;;;18.65;7.45;;;;;;;;;;6215881;28;20049;-77
2023/04/14 17:40:33;;;;;;;18.52;8.15;;;;;;;;;;6218006;28;20069;-76
2023/04/14 17:43:40;;;;;;;9.52;4.20;;;;;;;;;;6207014;28;20092;-78
2023/04/14 17:46:45;;;;;;;3.25;1.85;;;;;;;;;;6191733;28;20114;-79
2023/04/14 17:49:49;;;;;;;5.25;3.30;;;;;;;;;;6189664;28;20494;-78
2023/04/14 17:52:53;;;;;;;3.50;2.05;;;;;;;;;;6205079;28;20041;-80
2023/04/14 17:55:57;;;;;;;4.93;1.90;;;;;;;;;;6198698;28;20045;-77
2023/04/14 17:58:59;;;;;;;4.40;1.75;;;;;;;;;;6204090;28;20045;-78
2023/04/14 18:02:00;;;;;;;4.30;1.50;;;;;;;;;;6206295;28;20136;-78
2023/04/14 18:05:02;;;;;;;2.25;1.25;;;;;;;;;;6187303;28;20074;-80
2023/04/14 18:08:04;;;;;;;2.33;1.00;;;;;;;;;;6208474;28;20049;-79
2023/04/14 18:11:09;;;;;;;5.10;2.70;;;;;;;;;;6211526;28;20046;-77
2023/04/14 18:14:10;;;;;;;3.83;2.63;;;;;;;;;;6205089;28;20442;-79
2023/04/14 18:17:12;;;;;;;4.43;3.38;;;;;;;;;;6206232;28;20045;-80